Time;durP1;ratioP1;P1;durP2;ratioP2;P2;SDS_P1;SDS_P2;PMS_P1;PMS_P2;Temp;Humidity;BMP_temperature;BMP_pressure;BME280_temperature;BME280_humidity;BME280_pressure;Samples;Min_cycle;Max_cycle;Signal;HPM_P1;HPM_P2
2022/09/03 00:01:05;;;;;;;8.90;0.73;;;15.70;99.90;;;;;;5013839;28;20050;-92
2022/09/03 00:03:39;;;;;;;5.70;0.57;;;15.70;99.90;;;;;;5014296;28;20096;-93
2022/09/03 00:06:09;;;;;;;2.15;0.68;;;15.70;99.90;;;;;;5014835;28;20049;-93
2022/09/03 00:08:43;;;;;;;5.50;0.60;;;15.60;99.90;;;;;;5015903;28;20084;-93
2022/09/03 00:11:24;;;;;;;3.65;0.50;;;15.60;99.90;;;;;;5014650;28;20061;-92
2022/09/03 00:14:02;;;;;;;3.42;0.65;;;15.70;99.90;;;;;;5013643;28;20047;-93
2022/09/03 00:16:36;;;;;;;4.55;0.60;;;15.70;99.90;;;;;;5013984;28;20076;-93
2022/09/03 00:19:02;;;;;;;2.80;0.68;;;15.70;99.90;;;;;;5028561;28;20106;-92
2022/09/03 00:21:33;;;;;;;4.03;0.60;;;15.70;99.90;;;;;;5033668;28;20041;-92
2022/09/03 00:24:02;;;;;;;4.65;0.68;;;15.70;99.90;;;;;;5034095;28;20091;-92
2022/09/03 00:26:33;;;;;;;2.30;0.68;;;15.60;99.90;;;;;;5033829;28;20041;-92
2022/09/03 00:29:06;;;;;;;2.53;0.70;;;15.60;99.90;;;;;;5032645;28;20107;-93
2022/09/03 00:31:37;;;;;;;3.85;0.70;;;15.50;99.90;;;;;;5033383;28;20045;-92
2022/09/03 00:34:11;;;;;;;7.38;0.70;;;15.50;99.90;;;;;;5050794;28;20041;-93
2022/09/03 00:36:41;;;;;;;5.85;0.98;;;15.40;99.90;;;;;;5033522;28;20045;-92
2022/09/03 00:39:13;;;;;;;1.95;0.68;;;15.40;99.90;;;;;;5033603;28;20049;-91
2022/09/03 00:41:45;;;;;;;5.13;0.70;;;15.30;99.90;;;;;;5033709;28;20552;-92
2022/09/03 00:44:36;;;;;;;7.65;0.60;;;15.20;99.90;;;;;;5032377;28;20106;-92
2022/09/03 00:47:31;;;;;;;3.55;0.73;;;15.20;99.90;;;;;;5033749;28;20485;-92
2022/09/03 00:50:04;;;;;;;3.35;0.70;;;15.20;99.90;;;;;;5033225;28;20382;-92
2022/09/03 00:52:53;;;;;;;3.47;0.70;;;15.10;99.90;;;;;;5033619;28;20075;-92
2022/09/03 00:55:25;;;;;;;4.38;0.50;;;15.10;99.90;;;;;;5033471;28;20057;-92
2022/09/03 00:58:03;;;;;;;3.85;0.60;;;15.00;99.90;;;;;;5032901;28;20099;-93
2022/09/03 01:00:29;;;;;;;8.65;1.20;;;15.00;99.90;;;;;;5032639;28;20048;-93
2022/09/03 01:02:55;;;;;;;4.07;0.70;;;14.90;99.90;;;;;;5033910;28;20051;-92
2022/09/03 01:05:41;;;;;;;5.57;0.80;;;14.90;99.90;;;;;;5032151;28;20055;-93
2022/09/03 01:08:43;;;;;;;3.63;0.65;;;14.90;99.90;;;;;;5032760;28;20048;-92
2022/09/03 01:11:25;;;;;;;5.15;0.55;;;14.80;99.90;;;;;;5032806;28;20052;-92
2022/09/03 01:13:56;;;;;;;4.20;0.70;;;14.80;99.90;;;;;;5033484;28;20056;-92
2022/09/03 01:16:37;;;;;;;5.03;0.70;;;14.70;99.90;;;;;;5032721;28;20057;-92
2022/09/03 01:19:46;;;;;;;2.58;0.65;;;14.60;99.90;;;;;;5032816;28;20133;-92
2022/09/03 01:22:19;;;;;;;6.32;0.85;;;14.60;99.90;;;;;;5033228;28;20072;-92
2022/09/03 01:24:57;;;;;;;5.82;0.98;;;14.50;99.90;;;;;;5032243;28;20076;-93
2022/09/03 01:27:45;;;;;;;3.45;0.68;;;14.50;99.90;;;;;;5032226;28;20055;-93
2022/09/03 01:30:17;;;;;;;2.17;0.70;;;14.50;99.90;;;;;;5032249;28;20049;-93
2022/09/03 01:32:57;;;;;;;3.03;0.80;;;14.40;99.90;;;;;;5031813;28;20449;-92
2022/09/03 01:35:31;;;;;;;3.75;0.80;;;14.40;99.90;;;;;;5032613;28;20052;-92
2022/09/03 01:38:20;;;;;;;2.85;0.60;;;14.30;99.90;;;;;;5032635;28;20052;-92
2022/09/03 01:40:49;;;;;;;7.43;0.60;;;14.30;99.90;;;;;;5035037;28;20041;-92
2022/09/03 01:43:31;;;;;;;4.50;0.90;;;14.20;99.90;;;;;;5033550;28;20040;-92
2022/09/03 01:46:06;;;;;;;4.78;0.68;;;14.20;99.90;;;;;;5027936;28;20045;-92
2022/09/03 01:48:42;;;;;;;4.85;0.60;;;14.20;99.90;;;;;;5012355;28;20131;-93
2022/09/03 01:51:11;;;;;;;4.03;0.68;;;14.10;99.90;;;;;;5013248;28;20127;-92
2022/09/03 01:53:51;;;;;;;1.67;0.82;;;14.10;99.90;;;;;;5011794;28;20052;-93
2022/09/03 01:56:34;;;;;;;5.88;0.93;;;14.00;99.90;;;;;;5012363;28;20068;-92
2022/09/03 01:59:07;;;;;;;2.13;0.60;;;14.00;99.90;;;;;;5012738;28;20041;-93
2022/09/03 02:01:38;;;;;;;;;;;13.90;99.90;;;;;;5012694;28;20064;-93
2022/09/03 02:04:22;;;;;;;3.28;0.93;;;13.90;99.90;;;;;;5012867;28;19920;-94
2022/09/03 02:06:49;;;;;;;9.43;0.90;;;13.80;99.90;;;;;;5012540;28;20050;-93
2022/09/03 02:09:16;;;;;;;3.90;0.70;;;13.80;99.90;;;;;;5012370;28;20045;-93
2022/09/03 02:11:45;;;;;;;5.20;0.80;;;13.80;99.90;;;;;;5012231;28;20056;-93
2022/09/03 02:14:12;;;;;;;3.13;0.88;;;13.70;99.90;;;;;;5011645;28;20081;-93
2022/09/03 02:16:38;;;;;;;3.63;0.80;;;13.60;99.90;;;;;;5012053;28;20160;-93
2022/09/03 02:19:09;;;;;;;7.30;1.00;;;13.60;99.90;;;;;;5027860;28;20131;-93
2022/09/03 02:21:39;;;;;;;8.02;0.80;;;13.60;99.90;;;;;;5033835;28;20442;-92
2022/09/03 02:24:07;;;;;;;2.75;0.70;;;13.60;99.90;;;;;;5032363;28;20067;-92
2022/09/03 02:26:33;;;;;;;3.67;0.80;;;13.60;99.90;;;;;;5032268;28;20447;-92
2022/09/03 02:29:01;;;;;;;13.40;1.08;;;13.60;99.90;;;;;;5031757;28;20134;-92
2022/09/03 02:31:27;;;;;;;1.88;0.70;;;13.60;99.90;;;;;;5031357;28;20045;-93
2022/09/03 02:33:55;;;;;;;4.00;0.80;;;13.60;99.90;;;;;;5032288;28;20401;-93
2022/09/03 02:36:27;;;;;;;3.10;0.80;;;13.60;99.90;;;;;;5030611;28;20037;-93
2022/09/03 02:38:53;;;;;;;2.00;0.80;;;13.50;99.90;;;;;;5032150;28;20500;-93
2022/09/03 02:41:19;;;;;;;6.72;1.08;;;13.50;99.90;;;;;;5031893;28;20053;-92
2022/09/03 02:43:52;;;;;;;6.47;0.93;;;13.50;99.90;;;;;;5031191;28;20075;-93
2022/09/03 02:46:26;;;;;;;4.93;1.00;;;13.50;99.90;;;;;;5031601;28;20037;-93
2022/09/03 02:48:53;;;;;;;3.55;0.93;;;13.50;99.90;;;;;;5033126;28;20476;-92
2022/09/03 02:51:19;;;;;;;3.15;0.75;;;13.40;99.90;;;;;;5032203;28;20051;-92
2022/09/03 02:53:44;;;;;;;6.00;1.08;;;13.40;99.90;;;;;;5033005;28;20479;-92
2022/09/03 02:56:11;;;;;;;4.65;0.98;;;13.40;99.90;;;;;;5032362;28;20358;-92
2022/09/03 02:58:37;;;;;;;6.35;1.05;;;13.40;99.90;;;;;;5032488;28;20051;-92
2022/09/03 03:01:03;;;;;;;6.75;0.90;;;13.40;99.90;;;;;;5033070;28;20048;-93
2022/09/03 03:03:29;;;;;;;2.33;0.90;;;13.40;99.90;;;;;;5035131;28;20041;-92
2022/09/03 03:05:58;;;;;;;12.82;0.93;;;13.30;99.90;;;;;;5036241;28;20045;-93
2022/09/03 03:08:27;;;;;;;2.30;0.73;;;13.40;99.90;;;;;;5020277;28;20077;-92
2022/09/03 03:10:58;;;;;;;4.80;1.15;;;13.30;99.90;;;;;;5015526;28;20038;-92
2022/09/03 03:13:26;;;;;;;2.75;1.10;;;13.30;99.90;;;;;;5015437;28;20053;-93
2022/09/03 03:15:55;;;;;;;5.40;0.90;;;13.30;99.90;;;;;;5015900;28;20199;-93
2022/09/03 03:18:21;;;;;;;3.95;0.90;;;13.30;99.90;;;;;;5015431;28;20041;-92
2022/09/03 03:20:47;;;;;;;5.25;0.90;;;13.30;99.90;;;;;;5015990;28;20390;-92
2022/09/03 03:23:13;;;;;;;3.67;0.80;;;13.40;99.90;;;;;;5015398;28;20050;-93
2022/09/03 03:25:39;;;;;;;4.20;1.10;;;13.30;99.90;;;;;;5015726;28;20049;-92
2022/09/03 03:28:06;;;;;;;2.40;0.90;;;13.40;99.90;;;;;;5015398;28;20405;-93
2022/09/03 03:30:35;;;;;;;3.50;0.98;;;13.40;99.90;;;;;;5015780;28;20064;-92
2022/09/03 03:33:01;;;;;;;2.67;0.95;;;13.50;99.90;;;;;;5015399;28;20103;-92
2022/09/03 03:35:27;;;;;;;4.60;0.90;;;13.50;99.90;;;;;;5016862;28;20053;-92
2022/09/03 03:37:53;;;;;;;2.55;1.05;;;13.50;99.90;;;;;;5031358;28;20499;-92
2022/09/03 03:40:19;;;;;;;5.40;1.10;;;13.60;99.90;;;;;;5014982;28;20099;-94
2022/09/03 03:42:45;;;;;;;3.95;1.10;;;13.60;99.90;;;;;;5031728;28;20516;-92
2022/09/03 03:45:10;;;;;;;5.28;1.02;;;13.60;99.90;;;;;;5030941;28;20136;-93
2022/09/03 03:47:36;;;;;;;1.92;0.80;;;13.70;99.90;;;;;;5031137;28;20080;-93
2022/09/03 03:50:03;;;;;;;5.10;1.23;;;13.70;99.90;;;;;;5032146;28;20386;-92
2022/09/03 03:52:29;;;;;;;5.20;0.80;;;13.70;99.90;;;;;;5030572;28;20084;-93
2022/09/03 03:54:56;;;;;;;5.18;0.98;;;13.80;99.90;;;;;;5032241;28;20045;-93
2022/09/03 03:57:22;;;;;;;6.50;1.25;;;13.90;99.90;;;;;;5030957;28;20059;-92
2022/09/03 03:59:48;;;;;;;3.58;0.70;;;13.90;99.90;;;;;;5030819;28;20053;-93
2022/09/03 04:02:15;;;;;;;1.85;0.95;;;13.90;99.90;;;;;;5031275;28;20099;-93
2022/09/03 04:04:41;;;;;;;1.83;0.95;;;13.90;99.90;;;;;;5031450;28;20046;-93
2022/09/03 04:07:07;;;;;;;4.40;1.05;;;13.90;99.90;;;;;;5030625;28;20052;-93
2022/09/03 04:09:33;;;;;;;3.97;1.17;;;14.00;99.90;;;;;;5031222;28;20107;-93
2022/09/03 04:11:59;;;;;;;4.25;1.10;;;14.00;99.90;;;;;;5031017;28;20049;-93
2022/09/03 04:14:26;;;;;;;6.72;1.30;;;14.00;99.90;;;;;;5030098;28;20512;-92
2022/09/03 04:16:52;;;;;;;7.75;1.20;;;14.00;99.90;;;;;;5030941;28;20607;-92
2022/09/03 04:19:18;;;;;;;1.60;0.90;;;14.00;99.90;;;;;;5031164;28;20049;-92
2022/09/03 04:21:44;;;;;;;6.38;1.10;;;14.00;99.90;;;;;;5030267;28;20041;-93
2022/09/03 04:24:10;;;;;;;2.30;1.00;;;14.00;99.90;;;;;;5031021;28;20049;-94
2022/09/03 04:26:37;;;;;;;3.53;1.05;;;14.00;99.90;;;;;;5030029;28;20037;-93
2022/09/03 04:29:05;;;;;;;5.18;1.00;;;14.00;99.90;;;;;;5032050;28;20490;-93
2022/09/03 04:31:32;;;;;;;8.95;1.00;;;14.00;99.90;;;;;;5031900;28;20049;-92
2022/09/03 04:33:58;;;;;;;4.10;1.02;;;14.00;99.90;;;;;;5032102;28;20049;-93
2022/09/03 04:36:26;;;;;;;5.38;1.25;;;14.00;99.90;;;;;;5030124;28;20060;-93
2022/09/03 04:38:53;;;;;;;2.28;0.90;;;14.00;99.90;;;;;;5031038;28;20150;-93
2022/09/03 04:41:23;;;;;;;6.63;1.00;;;14.00;99.90;;;;;;5030437;28;20060;-93
2022/09/03 04:43:51;;;;;;;2.72;1.20;;;14.00;99.90;;;;;;5030577;28;20049;-94
2022/09/03 04:46:19;;;;;;;2.92;0.90;;;14.00;99.90;;;;;;5030681;28;20420;-92
2022/09/03 04:48:49;;;;;;;2.42;0.90;;;14.00;99.90;;;;;;5029964;28;20037;-93
2022/09/03 04:51:19;;;;;;;3.80;0.88;;;14.00;99.90;;;;;;5030379;28;20033;-93
2022/09/03 04:53:46;;;;;;;4.18;1.33;;;14.00;99.90;;;;;;5030949;28;20464;-94
2022/09/03 04:56:17;;;;;;;2.55;1.20;;;14.00;99.90;;;;;;5029818;28;20536;-93
2022/09/03 04:58:43;;;;;;;5.25;0.90;;;13.90;99.90;;;;;;5030605;28;20091;-94
2022/09/03 05:01:15;;;;;;;9.63;1.48;;;13.90;99.90;;;;;;5030437;28;20045;-93
2022/09/03 05:03:41;;;;;;;3.33;1.10;;;13.90;99.90;;;;;;5029544;28;20426;-92
2022/09/03 05:06:07;;;;;;;3.47;1.40;;;13.90;99.90;;;;;;5029908;28;20052;-95
2022/09/03 05:08:35;;;;;;;4.55;1.10;;;13.90;99.90;;;;;;5015934;28;20049;-93
2022/09/03 05:11:03;;;;;;;1.85;0.93;;;13.90;99.90;;;;;;5031849;28;20100;-94
2022/09/03 05:13:29;;;;;;;3.55;1.10;;;13.90;99.90;;;;;;5032203;28;20041;-93
2022/09/03 05:16:05;;;;;;;3.90;1.15;;;13.90;99.90;;;;;;5029740;28;20053;-92
2022/09/03 05:18:32;;;;;;;4.78;1.17;;;13.90;99.90;;;;;;5028640;28;20041;-93
2022/09/03 05:21:02;;;;;;;7.85;1.30;;;13.90;99.90;;;;;;5029987;28;20346;-91
2022/09/03 05:23:29;;;;;;;3.33;0.95;;;13.90;99.90;;;;;;5028710;28;20559;-91
2022/09/03 05:25:57;;;;;;;2.50;0.98;;;13.90;99.90;;;;;;5032015;28;20041;-91
2022/09/03 05:28:26;;;;;;;6.90;1.10;;;13.90;99.90;;;;;;5048035;28;20083;-90
2022/09/03 05:31:00;;;;;;;3.92;1.10;;;13.90;99.90;;;;;;5032500;28;20080;-92
2022/09/03 05:33:26;;;;;;;4.88;1.25;;;13.90;99.90;;;;;;5032551;28;20448;-93
2022/09/03 05:35:53;;;;;;;5.20;1.15;;;13.90;99.90;;;;;;5033564;28;20043;-91
2022/09/03 05:38:19;;;;;;;3.40;1.20;;;13.90;99.90;;;;;;5032364;28;20122;-93
2022/09/03 05:40:45;;;;;;;4.13;0.93;;;13.90;99.90;;;;;;5032859;28;20045;-95
2022/09/03 05:43:11;;;;;;;5.38;1.63;;;13.90;99.90;;;;;;5031187;28;20645;-93
2022/09/03 05:45:36;;;;;;;4.65;1.10;;;13.90;99.90;;;;;;5031584;28;20151;-93
2022/09/03 05:48:02;;;;;;;3.42;1.08;;;14.00;99.90;;;;;;5032117;28;20037;-93
2022/09/03 05:50:28;;;;;;;4.32;1.23;;;14.00;99.90;;;;;;5038009;28;20052;-92
2022/09/03 05:52:54;;;;;;;6.53;1.05;;;14.00;99.90;;;;;;5039486;28;20056;-93
2022/09/03 05:55:19;;;;;;;5.28;1.58;;;14.00;99.90;;;;;;5039689;28;20132;-91
2022/09/03 05:57:50;;;;;;;2.92;1.20;;;14.10;99.90;;;;;;5040479;28;20123;-91
2022/09/03 06:00:17;;;;;;;5.32;1.20;;;14.10;99.90;;;;;;5030697;28;20045;-92
2022/09/03 06:02:48;;;;;;;3.53;1.10;;;14.10;99.90;;;;;;5032067;28;20028;-92
2022/09/03 06:05:15;;;;;;;2.60;1.00;;;14.20;99.90;;;;;;5039525;28;20112;-92
2022/09/03 06:07:41;;;;;;;4.07;1.20;;;14.20;99.90;;;;;;5030545;28;20520;-93
2022/09/03 06:10:08;;;;;;;5.75;1.50;;;14.20;99.90;;;;;;5039995;28;20124;-92
2022/09/03 06:12:33;;;;;;;2.85;1.17;;;14.30;99.90;;;;;;5036680;28;20055;-92
2022/09/03 06:14:59;;;;;;;2.38;1.23;;;14.30;99.90;;;;;;5039281;28;20044;-93
2022/09/03 06:17:25;;;;;;;3.85;0.90;;;14.30;99.90;;;;;;5031425;28;20477;-92
2022/09/03 06:19:51;;;;;;;2.53;1.20;;;14.30;99.90;;;;;;5034936;28;20400;-95
2022/09/03 06:22:17;;;;;;;3.20;0.98;;;14.30;99.90;;;;;;5032081;28;20041;-95
2022/09/03 06:24:48;;;;;;;4.88;1.10;;;14.30;99.90;;;;;;5033633;28;20075;-95
2022/09/03 06:27:20;;;;;;;2.08;1.00;;;14.30;99.90;;;;;;5032634;28;20052;-96
2022/09/03 06:29:51;;;;;;;4.35;1.10;;;14.20;99.90;;;;;;5035856;28;20477;-95
2022/09/03 06:32:17;;;;;;;3.08;1.02;;;14.40;99.90;;;;;;5035747;28;20048;-94
2022/09/03 06:34:43;;;;;;;2.53;1.10;;;14.40;99.90;;;;;;5036182;28;20036;-95
2022/09/03 06:37:11;;;;;;;3.47;1.13;;;14.50;99.90;;;;;;5039121;28;20127;-96
2022/09/03 06:39:40;;;;;;;5.30;1.40;;;14.50;99.90;;;;;;5053715;28;20044;-96
2022/09/03 06:42:08;;;;;;;3.75;1.20;;;14.60;99.90;;;;;;5050369;28;20044;-95
2022/09/03 06:44:34;;;;;;;4.70;1.23;;;14.70;99.90;;;;;;5040855;28;20045;-95
2022/09/03 06:47:06;;;;;;;6.25;1.30;;;14.70;99.90;;;;;;5039970;28;20041;-95
2022/09/03 06:49:31;;;;;;;6.10;1.17;;;14.80;99.90;;;;;;5039298;28;20132;-96
2022/09/03 06:51:57;;;;;;;5.55;1.30;;;14.80;99.90;;;;;;5035530;28;20524;-94
2022/09/03 06:54:24;;;;;;;2.33;1.13;;;14.90;99.90;;;;;;5040731;28;20049;-92
2022/09/03 06:56:49;;;;;;;4.30;1.42;;;15.00;99.90;;;;;;5041090;28;20139;-93
2022/09/03 06:59:15;;;;;;;4.30;1.10;;;15.10;99.90;;;;;;5039943;28;20123;-92
2022/09/03 07:01:43;;;;;;;4.35;1.30;;;15.10;99.90;;;;;;5038991;28;20081;-94
2022/09/03 07:04:09;;;;;;;3.17;1.27;;;15.30;99.90;;;;;;5054968;28;20044;-92
2022/09/03 07:06:37;;;;;;;2.75;0.93;;;15.30;99.90;;;;;;5040164;28;20074;-93
2022/09/03 07:09:21;;;;;;;5.85;1.20;;;15.40;99.90;;;;;;5055267;28;20109;-93
2022/09/03 07:11:48;;;;;;;3.47;1.15;;;15.50;99.90;;;;;;5038625;28;20040;-94
2022/09/03 07:14:15;;;;;;;3.55;1.10;;;15.60;99.90;;;;;;5038703;28;20048;-95
2022/09/03 07:16:42;;;;;;;5.43;0.95;;;15.70;99.90;;;;;;5038083;28;20502;-95
2022/09/03 07:19:12;;;;;;;3.50;0.90;;;15.80;99.90;;;;;;5038507;28;20056;-92
2022/09/03 07:21:40;;;;;;;5.90;1.02;;;15.90;99.90;;;;;;5043659;28;20050;-92
2022/09/03 07:24:07;;;;;;;3.05;1.00;;;16.00;99.90;;;;;;5038129;28;20480;-93
2022/09/03 07:26:36;;;;;;;5.45;1.10;;;16.10;99.90;;;;;;5038711;28;20527;-92
2022/09/03 07:29:04;;;;;;;3.55;1.05;;;16.20;99.90;;;;;;5034731;28;20549;-94
2022/09/03 07:31:32;;;;;;;5.32;1.00;;;16.30;99.90;;;;;;5018077;28;20588;-93
2022/09/03 07:34:00;;;;;;;2.17;0.82;;;16.50;99.90;;;;;;5020439;28;20134;-93
2022/09/03 07:36:28;;;;;;;4.70;0.95;;;16.60;99.90;;;;;;5019709;28;20045;-93
2022/09/03 07:38:56;;;;;;;4.45;0.90;;;16.70;99.90;;;;;;5020054;28;20098;-92
2022/09/03 07:41:26;;;;;;;5.45;0.90;;;16.80;99.90;;;;;;5020219;28;20095;-94
2022/09/03 07:43:53;;;;;;;6.70;1.20;;;16.90;99.90;;;;;;5018350;28;20127;-93
2022/09/03 07:46:22;;;;;;;2.15;0.70;;;17.00;99.90;;;;;;5016705;28;20045;-93
2022/09/03 07:48:51;;;;;;;2.70;0.80;;;17.10;99.90;;;;;;5020237;28;20053;-96
2022/09/03 07:51:19;;;;;;;2.47;0.90;;;17.20;99.90;;;;;;5019520;28;20037;-95
2022/09/03 07:53:46;;;;;;;5.07;1.00;;;17.30;99.90;;;;;;5018530;28;20132;-95
2022/09/03 07:56:13;;;;;;;1.77;0.80;;;17.40;99.90;;;;;;5018513;28;20037;-94
2022/09/03 07:58:40;;;;;;;6.85;0.85;;;17.50;99.90;;;;;;5017578;28;20063;-94
2022/09/03 08:01:09;;;;;;;6.78;0.93;;;17.60;99.90;;;;;;5017878;28;20084;-95
2022/09/03 08:03:35;;;;;;;4.15;1.10;;;17.70;99.90;;;;;;5019066;28;20408;-95
2022/09/03 08:06:03;;;;;;;4.32;0.90;;;17.80;99.90;;;;;;5018047;28;20048;-96
2022/09/03 08:08:31;;;;;;;5.63;0.85;;;17.90;99.90;;;;;;5032573;28;20079;-95
2022/09/03 08:11:30;;;;;;;2.35;0.80;;;18.00;99.90;;;;;;5019300;28;20049;-95
2022/09/03 08:14:05;;;;;;;5.20;0.90;;;18.10;99.90;;;;;;5018826;28;20083;-95
2022/09/03 08:16:38;;;;;;;3.85;1.13;;;18.20;99.90;;;;;;5018441;28;20053;-94
2022/09/03 08:19:04;;;;;;;;;;;18.30;99.90;;;;;;5018668;28;20057;-93
2022/09/03 08:21:30;;;;;;;6.15;1.10;;;18.40;99.90;;;;;;5034802;28;20234;-93
2022/09/03 08:24:02;;;;;;;4.38;0.90;;;18.50;99.90;;;;;;5017579;28;20481;-94
2022/09/03 08:26:31;;;;;;;10.70;1.40;;;18.60;99.90;;;;;;5017316;28;20095;-93
2022/09/03 08:28:57;;;;;;;2.70;0.77;;;18.70;99.90;;;;;;5017583;28;20548;-93
2022/09/03 08:31:25;;;;;;;4.03;0.90;;;18.80;99.90;;;;;;5025840;28;20140;-93
2022/09/03 08:33:55;;;;;;;9.18;0.98;;;18.90;99.90;;;;;;5017798;28;20088;-92
2022/09/03 08:36:28;;;;;;;2.33;1.05;;;19.10;99.90;;;;;;5018512;28;20044;-93
2022/09/03 08:38:58;;;;;;;3.35;0.68;;;19.20;99.90;;;;;;5017833;28;20041;-96
2022/09/03 08:41:58;;;;;;;2.88;0.82;;;19.30;99.90;;;;;;5025423;28;20044;-95
2022/09/03 08:44:38;;;;;;;4.25;1.15;;;19.40;99.90;;;;;;5017510;28;20109;-95
2022/09/03 08:47:22;;;;;;;4.10;0.60;;;19.50;99.90;;;;;;5016473;28;20052;-95
2022/09/03 08:49:59;;;;;;;4.55;0.82;;;19.70;99.90;;;;;;5016917;28;20052;-95
2022/09/03 08:52:31;;;;;;;7.57;0.90;;;19.70;99.90;;;;;;5017127;28;20037;-93
2022/09/03 08:55:05;;;;;;;2.08;0.70;;;19.80;99.90;;;;;;5016796;28;20083;-93
2022/09/03 08:57:40;;;;;;;7.18;0.80;;;19.90;99.90;;;;;;5026251;28;20561;-93
2022/09/03 09:00:12;;;;;;;2.22;0.68;;;20.00;99.90;;;;;;5018892;28;20123;-92
2022/09/03 09:02:47;;;;;;;7.60;0.80;;;20.10;99.90;;;;;;5017353;28;20128;-93
2022/09/03 09:05:23;;;;;;;4.22;0.80;;;20.50;99.90;;;;;;5017333;28;20053;-92
2022/09/03 09:08:02;;;;;;;3.42;0.70;;;20.30;99.90;;;;;;5018686;28;20040;-92
2022/09/03 09:10:44;;;;;;;5.80;1.20;;;20.30;99.90;;;;;;5017896;28;20127;-93
2022/09/03 09:13:37;;;;;;;7.23;0.93;;;20.40;99.90;;;;;;5017493;28;20099;-93
2022/09/03 09:16:07;;;;;;;;;;;20.50;99.90;;;;;;5018181;28;20036;-94
2022/09/03 09:18:42;;;;;;;4.65;0.90;;;20.60;99.90;;;;;;5016131;28;19920;-93
2022/09/03 09:21:12;;;;;;;7.80;0.85;;;20.60;99.90;;;;;;5016602;28;20048;-93
2022/09/03 09:24:01;;;;;;;6.88;0.70;;;20.70;99.90;;;;;;5016751;28;20037;-94
2022/09/03 09:26:38;;;;;;;7.22;0.80;;;20.80;99.90;;;;;;5016663;28;20164;-93
2022/09/03 09:29:10;;;;;;;8.88;1.10;;;20.80;99.90;;;;;;5028672;28;20037;-93
2022/09/03 09:31:38;;;;;;;8.40;1.25;;;20.90;99.90;;;;;;5010249;28;20049;-93
2022/09/03 09:34:05;;;;;;;4.28;0.70;;;21.00;99.90;;;;;;5013699;28;20088;-95
2022/09/03 09:36:51;;;;;;;6.68;0.90;;;21.00;99.90;;;;;;5021977;28;20048;-92
2022/09/03 09:39:25;;;;;;;2.50;0.60;;;21.10;99.90;;;;;;5034276;28;20198;-93
2022/09/03 09:42:08;;;;;;;8.80;0.82;;;21.20;99.90;;;;;;5033033;28;20051;-94
2022/09/03 09:44:40;;;;;;;8.57;0.80;;;21.30;99.90;;;;;;5033514;28;20130;-94
2022/09/03 09:47:34;;;;;;;5.18;0.98;;;21.30;99.90;;;;;;5033316;28;20044;-94
2022/09/03 09:50:15;;;;;;;3.28;0.93;;;21.60;99.90;;;;;;5034344;28;20488;-93
2022/09/03 09:52:46;;;;;;;3.72;0.63;;;21.70;99.90;;;;;;5031468;28;20055;-94
2022/09/03 09:55:25;;;;;;;4.15;0.68;;;21.80;99.90;;;;;;5033995;28;20045;-95
2022/09/03 09:58:10;;;;;;;2.88;0.50;;;21.90;99.90;;;;;;5035819;28;20106;-93
2022/09/03 10:00:37;;;;;;;4.85;0.68;;;22.00;99.90;;;;;;5032082;28;20773;-94
2022/09/03 10:03:12;;;;;;;9.65;0.70;;;22.10;99.90;;;;;;5032486;28;20048;-93
2022/09/03 10:06:52;;;;;;;4.13;0.70;;;22.20;99.90;;;;;;5031597;28;20045;-94
2022/09/03 10:09:17;;;;;;;;;;;;;;;;;;;;;
2022/09/03 10:11:50;;;;;;;4.82;0.80;;;22.40;99.90;;;;;;5049267;28;20071;-93
2022/09/03 10:14:23;;;;;;;4.95;1.00;;;22.50;99.90;;;;;;5031921;28;20079;-92
2022/09/03 10:17:02;;;;;;;9.90;0.70;;;22.60;99.40;;;;;;5031761;28;20728;-94
2022/09/03 10:22:55;;;;;;;4.82;0.60;;;22.80;98.20;;;;;;5048767;28;20049;-93
2022/09/03 10:25:28;;;;;;;2.60;0.70;;;22.70;97.80;;;;;;5033052;28;20072;-94
2022/09/03 10:27:55;;;;;;;7.93;0.90;;;22.80;97.40;;;;;;5032545;28;20419;-94
2022/09/03 10:30:21;;;;;;;5.43;0.82;;;22.90;97.10;;;;;;5031652;28;20102;-94
2022/09/03 10:33:07;;;;;;;5.70;0.80;;;22.90;96.40;;;;;;5031951;28;20049;-94
2022/09/03 10:35:42;;;;;;;5.30;0.82;;;22.90;96.30;;;;;;5032611;28;20052;-93
2022/09/03 10:38:27;;;;;;;6.05;0.70;;;22.90;96.20;;;;;;5032823;28;20087;-94
2022/09/03 10:41:22;;;;;;;5.22;0.70;;;23.00;95.60;;;;;;5032255;28;20389;-94
2022/09/03 10:44:14;;;;;;;3.67;0.60;;;23.00;95.50;;;;;;5032923;28;20054;-94
2022/09/03 10:46:50;;;;;;;6.38;1.90;;;23.10;95.60;;;;;;5031942;28;20497;-92
2022/09/03 10:49:25;;;;;;;4.03;0.60;;;23.20;94.70;;;;;;5031871;28;20053;-93
2022/09/03 10:52:08;;;;;;;3.10;0.70;;;23.20;94.10;;;;;;5032723;28;20053;-94
2022/09/03 10:54:54;;;;;;;6.40;0.80;;;23.20;93.10;;;;;;5030655;28;20412;-94
2022/09/03 10:57:46;;;;;;;3.40;0.80;;;23.30;93.00;;;;;;5034520;28;20421;-94
2022/09/03 11:00:15;;;;;;;5.20;0.60;;;23.30;93.30;;;;;;5032022;28;20041;-95
2022/09/03 11:03:13;;;;;;;3.58;0.60;;;23.30;92.70;;;;;;5032949;28;20044;-94
2022/09/03 11:05:55;;;;;;;5.75;0.88;;;23.40;92.40;;;;;;5032072;28;20045;-94
2022/09/03 11:08:27;;;;;;;4.35;0.80;;;23.40;92.70;;;;;;5033192;28;20045;-94
2022/09/03 11:10:59;;;;;;;4.37;0.67;;;23.50;92.10;;;;;;5032013;28;20037;-94
2022/09/03 11:13:34;;;;;;;7.97;1.15;;;23.50;91.60;;;;;;5033233;28;20524;-94
2022/09/03 11:16:05;;;;;;;6.05;0.60;;;23.60;91.80;;;;;;5032092;28;20052;-95
2022/09/03 11:18:42;;;;;;;3.33;0.80;;;23.70;91.10;;;;;;5032769;28;20056;-95
2022/09/03 11:21:12;;;;;;;2.28;0.70;;;23.80;90.70;;;;;;5032083;28;20127;-94
2022/09/03 11:23:44;;;;;;;3.20;0.60;;;23.90;90.40;;;;;;5035210;28;20033;-95
2022/09/03 11:26:14;;;;;;;4.05;0.50;;;24.00;89.70;;;;;;5035381;28;20048;-95
2022/09/03 11:29:11;;;;;;;7.85;0.60;;;24.00;88.70;;;;;;5022966;28;20046;-95
2022/09/03 11:31:48;;;;;;;3.38;0.68;;;24.00;87.00;;;;;;5015431;28;20046;-95
2022/09/03 11:34:27;;;;;;;6.47;0.70;;;24.00;85.10;;;;;;5017548;28;20053;-95
2022/09/03 11:37:06;;;;;;;5.82;0.60;;;24.00;83.10;;;;;;5015224;28;20045;-96
2022/09/03 11:39:36;;;;;;;4.53;0.65;;;24.00;85.60;;;;;;5015479;28;20055;-95
2022/09/03 11:42:09;;;;;;;3.03;0.80;;;24.00;83.30;;;;;;5015017;28;20076;-94
2022/09/03 11:44:36;;;;;;;7.03;0.52;;;24.00;83.50;;;;;;5015160;28;20532;-96
2022/09/03 11:47:18;;;;;;;2.33;0.50;;;24.10;82.80;;;;;;5015514;28;20046;-95
2022/09/03 11:49:49;;;;;;;6.07;0.53;;;24.10;82.00;;;;;;5015947;28;20048;-95
2022/09/03 11:52:26;;;;;;;2.65;0.40;;;24.10;81.70;;;;;;5014668;28;20280;-95
2022/09/03 11:54:52;;;;;;;7.13;0.60;;;24.10;81.60;;;;;;5015828;28;20152;-94
2022/09/03 11:57:28;;;;;;;2.95;0.50;;;24.20;82.20;;;;;;5013907;28;20061;-95
2022/09/03 12:00:08;;;;;;;4.68;0.68;;;24.30;80.60;;;;;;5015597;28;20509;-96
2022/09/03 12:02:37;;;;;;;4.55;0.75;;;24.30;79.60;;;;;;5017741;28;20049;-94
2022/09/03 12:05:19;;;;;;;3.30;0.70;;;24.30;78.80;;;;;;5016453;28;20487;-95
2022/09/03 12:08:00;;;;;;;6.93;0.60;;;24.30;77.60;;;;;;5025066;28;20095;-94
2022/09/03 12:10:38;;;;;;;5.55;0.60;;;24.30;76.90;;;;;;5034589;28;20095;-95
2022/09/03 12:13:16;;;;;;;3.58;0.60;;;24.20;78.00;;;;;;5034099;28;20045;-94
2022/09/03 12:16:12;;;;;;;8.52;0.90;;;24.20;77.40;;;;;;5034496;28;20484;-95
2022/09/03 12:18:40;;;;;;;5.80;0.60;;;24.20;76.70;;;;;;5033843;28;20495;-94
2022/09/03 12:21:08;;;;;;;7.18;0.77;;;24.20;76.50;;;;;;5034824;28;20473;-93
2022/09/03 12:23:43;;;;;;;5.13;0.85;;;24.20;76.40;;;;;;5034305;28;20044;-94
2022/09/03 12:26:14;;;;;;;2.67;0.85;;;24.20;75.10;;;;;;5033943;28;20197;-94
2022/09/03 12:28:43;;;;;;;3.42;0.47;;;24.20;74.50;;;;;;5034072;28;20059;-94
2022/09/03 12:31:28;;;;;;;5.50;0.40;;;24.20;74.40;;;;;;5035509;28;20142;-94
2022/09/03 12:33:58;;;;;;;5.97;0.60;;;24.30;74.50;;;;;;5034553;28;20049;-94
2022/09/03 12:36:34;;;;;;;3.78;0.55;;;24.30;74.10;;;;;;5033570;28;20064;-95
2022/09/03 12:39:08;;;;;;;8.23;1.20;;;24.30;73.80;;;;;;5035802;28;20045;-96
2022/09/03 12:41:34;;;;;;;5.45;0.73;;;24.40;73.80;;;;;;5036021;28;20150;-94
2022/09/03 12:44:01;;;;;;;3.10;0.40;;;24.40;73.40;;;;;;5034906;28;20087;-94
2022/09/03 12:46:29;;;;;;;4.15;0.60;;;24.40;73.60;;;;;;5034767;28;20072;-94
2022/09/03 12:49:02;;;;;;;4.95;0.70;;;24.30;72.20;;;;;;5034463;28;20041;-95
2022/09/03 12:51:31;;;;;;;3.88;0.68;;;24.30;73.20;;;;;;5035554;28;20495;-95
2022/09/03 12:53:58;;;;;;;1.75;0.65;;;24.30;73.80;;;;;;5034498;28;20052;-94
2022/09/03 12:56:26;;;;;;;6.93;0.60;;;24.30;72.80;;;;;;5032856;28;20034;-95
2022/09/03 12:58:55;;;;;;;5.95;0.70;;;24.30;72.90;;;;;;5014504;28;20045;-95
2022/09/03 13:01:30;;;;;;;3.60;0.77;;;24.20;72.30;;;;;;5013902;28;20033;-93
2022/09/03 13:04:13;;;;;;;3.67;0.50;;;24.20;72.10;;;;;;5014054;28;20470;-95
2022/09/03 13:06:44;;;;;;;6.88;0.70;;;24.10;73.00;;;;;;5013762;28;20072;-93
2022/09/03 13:09:10;;;;;;;5.80;0.75;;;24.20;72.60;;;;;;5014874;28;20088;-94
2022/09/03 13:11:36;;;;;;;2.35;0.70;;;24.20;72.50;;;;;;5014240;28;20087;-94
2022/09/03 13:14:08;;;;;;;3.90;0.50;;;24.10;72.50;;;;;;5013703;28;20046;-95
2022/09/03 13:16:37;;;;;;;;;;;24.10;71.70;;;;;;5013142;28;20045;-94